Chatsworth, New Jersey
Current Conditions -  °F | °C
As of 11:58 AM on Sunday 23 Nov 2014 (Local Time) from KWRI Reporting Station
Clear Clear  
Wind Chill: 54°   Ceiling: Unl
Heat Index: 54°   Visibility: 10mi
Dew Point: 23°   Wind: 3mph
Humidity: 31%   Direction: 270°W
Pressure: 30.15"   Gusts: NA
Location:  39.82°N, 74.53°W
Report Text: KWRI 231658Z AUTO 27003KT 10SM CLR 12/M05 A3015 RMK AO2 SLP214 T01201049
Loading
Personal Weather Stations






























Interactive Weather Map New forecast layout! Learn more

10-Day Weather Forecast

Advertisements
Track Severe Weather on mobile